Time;durP1;ratioP1;P1;durP2;ratioP2;P2;SDS_P1;SDS_P2;PMS_P1;PMS_P2;Temp;Humidity;BMP_temperature;BMP_pressure;BME280_temperature;BME280_humidity;BME280_pressure;Samples;Min_cycle;Max_cycle;Signal;HPM_P1;HPM_P2
2022/10/28 03:47:04;;;;;;;26.67;13.15;;;;;;;11.71;100.00;101766.84;5272450;28;20392;-85
2022/10/28 03:50:07;;;;;;;27.27;13.48;;;;;;;11.79;100.00;101767.78;5218889;34;34689;-84
2022/10/28 03:53:10;;;;;;;24.15;12.68;;;;;;;11.82;100.00;101766.63;5218189;34;33652;-84
2022/10/28 03:56:12;;;;;;;27.08;13.43;;;;;;;11.73;100.00;101763.00;5214254;34;33942;-83
2022/10/28 03:59:15;;;;;;;31.05;14.70;;;;;;;11.75;100.00;101765.53;5207393;34;33706;-84
2022/10/28 04:02:21;;;;;;;28.67;13.35;;;;;;;11.68;100.00;101762.59;5203511;34;33747;-84
2022/10/28 04:05:24;;;;;;;27.17;13.52;;;;;;;11.66;100.00;101767.28;5200926;34;33937;-84
2022/10/28 04:08:27;;;;;;;24.35;14.02;;;;;;;11.66;100.00;101763.75;5206028;34;34554;-84
2022/10/28 04:11:31;;;;;;;26.48;12.82;;;;;;;11.77;100.00;101766.22;5203862;34;32946;-84
2022/10/28 04:14:33;;;;;;;26.55;12.37;;;;;;;11.72;100.00;101769.37;5203830;34;32697;-84
2022/10/28 04:17:36;;;;;;;26.85;12.18;;;;;;;11.69;100.00;101760.75;5214262;34;34307;-84
2022/10/28 04:20:39;;;;;;;27.25;13.32;;;;;;;11.75;100.00;101765.53;5214868;34;34546;-84
2022/10/28 04:23:41;;;;;;;28.55;13.93;;;;;;;11.78;100.00;101762.53;5206639;34;33696;-84
2022/10/28 04:26:44;;;;;;;28.50;13.65;;;;;;;11.73;100.00;101751.38;5205522;34;32248;-84
2022/10/28 04:29:47;;;;;;;29.90;13.05;;;;;;;11.72;100.00;101746.94;5209251;34;33498;-84
2022/10/28 04:32:49;;;;;;;27.40;12.55;;;;;;;11.80;100.00;101745.19;5228825;34;33818;-83
2022/10/28 04:35:52;;;;;;;30.52;13.60;;;;;;;11.79;100.00;101743.50;5225475;34;34720;-84
2022/10/28 04:38:55;;;;;;;26.12;13.13;;;;;;;11.66;100.00;101736.75;5228649;34;33869;-83
2022/10/28 04:41:57;;;;;;;29.40;14.35;;;;;;;11.74;100.00;101731.47;5204429;34;32350;-84
2022/10/28 04:45:00;;;;;;;39.13;16.02;;;;;;;11.76;100.00;101735.72;5211649;34;34106;-84
2022/10/28 04:48:03;;;;;;;30.60;12.98;;;;;;;11.71;100.00;101734.47;5202921;34;33929;-84
2022/10/28 04:51:06;;;;;;;32.55;13.95;;;;;;;11.66;100.00;101737.59;5202769;34;33917;-84
2022/10/28 04:54:09;;;;;;;31.05;13.93;;;;;;;11.60;100.00;101738.22;5203476;34;34155;-83
2022/10/28 04:57:12;;;;;;;29.00;13.23;;;;;;;11.56;100.00;101726.03;5203254;34;33590;-83
2022/10/28 05:00:14;;;;;;;32.05;13.15;;;;;;;11.64;100.00;101727.97;5202668;34;34390;-84
2022/10/28 05:03:17;;;;;;;30.30;12.52;;;;;;;11.58;100.00;101724.03;5202818;34;34381;-83
2022/10/28 05:06:20;;;;;;;28.70;12.15;;;;;;;11.56;100.00;101729.59;5203015;34;34131;-83
2022/10/28 05:09:22;;;;;;;31.23;12.02;;;;;;;11.61;100.00;101734.50;5202830;34;33844;-84
2022/10/28 05:12:25;;;;;;;32.10;13.38;;;;;;;11.56;100.00;101736.84;5203357;34;34633;-84
2022/10/28 05:15:30;;;;;;;25.83;12.13;;;;;;;11.62;100.00;101732.69;5202945;34;34781;-83
2022/10/28 05:18:33;;;;;;;28.45;11.45;;;;;;;11.63;100.00;101735.22;5202741;34;33728;-84
2022/10/28 05:21:35;;;;;;;33.63;12.55;;;;;;;11.51;100.00;101734.56;5190289;34;32295;-84
2022/10/28 05:24:38;;;;;;;27.85;10.30;;;;;;;11.41;100.00;101733.78;5190109;34;32317;-84
2022/10/28 05:27:46;;;;;;;26.12;10.68;;;;;;;11.41;100.00;101732.91;5207753;34;34562;-84
2022/10/28 05:30:49;;;;;;;25.95;10.77;;;;;;;11.38;100.00;101733.22;5211862;34;34193;-84
2022/10/28 05:33:51;;;;;;;28.77;11.82;;;;;;;11.32;100.00;101740.09;5210824;34;33908;-84
2022/10/28 05:36:54;;;;;;;30.33;11.55;;;;;;;11.30;100.00;101742.91;5202659;34;33796;-84
2022/10/28 05:39:57;;;;;;;27.95;11.55;;;;;;;11.25;100.00;101742.50;5202758;34;33538;-84
2022/10/28 05:43:00;;;;;;;28.05;10.45;;;;;;;11.26;100.00;101751.44;5202361;34;33768;-84
2022/10/28 05:46:03;;;;;;;29.02;10.98;;;;;;;11.32;100.00;101746.31;5202734;34;34363;-82
2022/10/28 05:49:06;;;;;;;29.75;11.82;;;;;;;11.28;100.00;101754.84;5189948;34;32096;-83
2022/10/28 05:52:09;;;;;;;27.13;10.55;;;;;;;11.18;100.00;101752.19;5189364;34;32598;-83
2022/10/28 05:55:11;;;;;;;28.95;10.48;;;;;;;11.09;100.00;101759.31;5202467;34;34851;-87
2022/10/28 05:58:15;;;;;;;26.85;9.93;;;;;;;11.09;100.00;101755.78;5189709;34;34220;-87
2022/10/28 06:01:18;;;;;;;27.60;10.20;;;;;;;11.13;100.00;101767.97;5217500;34;34408;-87
2022/10/28 06:04:20;;;;;;;25.45;11.02;;;;;;;11.19;100.00;101772.75;5204781;34;32206;-87
2022/10/28 06:07:23;;;;;;;32.13;11.15;;;;;;;11.26;100.00;101775.69;5210041;34;33969;-83
2022/10/28 06:10:26;;;;;;;26.73;10.02;;;;;;;11.30;100.00;101777.97;5209001;34;33893;-83
2022/10/28 06:13:28;;;;;;;23.42;9.73;;;;;;;11.26;100.00;101776.56;5202442;34;33642;-83
2022/10/28 06:16:31;;;;;;;25.02;9.32;;;;;;;11.35;100.00;101781.06;5205094;34;34239;-83
2022/10/28 06:19:34;;;;;;;24.90;10.27;;;;;;;11.30;100.00;101775.28;5219297;34;34252;-83
2022/10/28 06:22:36;;;;;;;23.30;10.20;;;;;;;11.24;100.00;101775.87;5220039;34;33898;-85
2022/10/28 06:25:39;;;;;;;27.65;9.68;;;;;;;11.21;100.00;101775.31;5205035;34;34303;-83
2022/10/28 06:28:42;;;;;;;23.30;9.40;;;;;;;11.24;100.00;101777.72;5195433;34;33918;-82
2022/10/28 06:31:44;;;;;;;22.17;9.30;;;;;;;11.32;100.00;101777.84;5210578;34;33843;-83
2022/10/28 06:34:47;;;;;;;27.55;9.85;;;;;;;11.25;100.00;101784.81;5219749;34;33612;-83
2022/10/28 06:37:54;;;;;;;31.60;9.50;;;;;;;11.29;100.00;101786.19;5212322;34;33873;-82
2022/10/28 06:40:58;;;;;;;22.05;9.38;;;;;;;11.34;100.00;101787.44;5216906;34;33498;-84
2022/10/28 06:44:01;;;;;;;25.55;9.20;;;;;;;11.39;100.00;101781.63;5220395;34;33568;-85
2022/10/28 06:47:04;;;;;;;25.80;9.60;;;;;;;11.40;100.00;101785.16;5218669;34;34550;-83
2022/10/28 06:50:06;;;;;;;19.12;8.75;;;;;;;11.52;100.00;101790.25;5207340;34;33767;-83
2022/10/28 06:53:09;;;;;;;31.02;9.85;;;;;;;11.53;100.00;101791.09;5210143;34;34212;-84
2022/10/28 06:56:12;;;;;;;20.58;8.60;;;;;;;11.54;100.00;101781.97;5201846;34;33654;-84
2022/10/28 06:59:15;;;;;;;24.58;10.38;;;;;;;11.47;100.00;101786.28;5202566;34;144614;-83
2022/10/28 07:02:17;;;;;;;22.40;9.45;;;;;;;11.49;100.00;101795.06;5209190;34;34535;-85
2022/10/28 07:05:22;;;;;;;22.25;9.60;;;;;;;11.61;100.00;101801.94;5205217;34;31341;-85
2022/10/28 07:08:28;;;;;;;25.33;10.38;;;;;;;11.38;100.00;101809.59;5200306;34;33403;-83
2022/10/28 07:11:31;;;;;;;21.17;9.85;;;;;;;11.47;100.00;101808.69;5208155;34;34643;-83
2022/10/28 07:14:33;;;;;;;26.33;10.27;;;;;;;11.52;100.00;101797.44;5209353;34;34608;-84
2022/10/28 07:17:36;;;;;;;24.17;9.48;;;;;;;11.40;100.00;101802.19;5217410;34;33379;-83
2022/10/28 07:20:39;;;;;;;25.33;10.13;;;;;;;11.36;100.00;101806.19;5207607;34;33896;-83
2022/10/28 07:23:41;;;;;;;22.60;9.90;;;;;;;11.35;100.00;101793.72;5199219;34;34195;-83
2022/10/28 07:26:47;;;;;;;23.98;10.02;;;;;;;11.30;100.00;101799.53;5197848;34;32076;-83
2022/10/28 07:29:50;;;;;;;27.27;11.55;;;;;;;11.39;100.00;101794.25;5202416;34;33939;-83
2022/10/28 07:32:52;;;;;;;27.05;10.95;;;;;;;11.43;100.00;101791.09;5207182;34;33847;-83
2022/10/28 07:35:56;;;;;;;25.58;10.50;;;;;;;11.54;100.00;101792.75;5201493;34;34260;-83
2022/10/28 07:38:58;;;;;;;24.52;10.82;;;;;;;11.50;100.00;101791.38;5189326;34;32783;-83
2022/10/28 07:42:01;;;;;;;23.23;9.85;;;;;;;11.55;100.00;101794.47;5189094;34;32512;-84
2022/10/28 07:45:04;;;;;;;26.98;10.40;;;;;;;11.58;100.00;101803.13;5203094;34;34316;-84
2022/10/28 07:48:08;;;;;;;28.12;11.75;;;;;;;11.71;100.00;101813.56;5190749;34;32225;-83
2022/10/28 07:51:13;;;;;;;24.12;10.90;;;;;;;11.77;100.00;101815.66;5202819;34;33789;-82
2022/10/28 07:54:16;;;;;;;26.75;10.90;;;;;;;11.79;100.00;101812.81;5190280;34;32220;-83
2022/10/28 07:57:18;;;;;;;26.25;10.82;;;;;;;11.89;100.00;101801.97;5218000;34;33545;-83
2022/10/28 08:00:21;;;;;;;22.95;10.10;;;;;;;11.82;100.00;101809.81;5219616;34;34096;-83
2022/10/28 08:03:25;;;;;;;27.35;11.15;;;;;;;11.87;100.00;101809.37;5220180;34;34352;-83
2022/10/28 08:06:39;;;;;;;36.58;12.40;;;;;;;11.90;100.00;101804.50;5219684;34;33416;-83
2022/10/28 08:09:42;;;;;;;23.70;9.90;;;;;;;11.98;100.00;101806.47;5219746;34;34363;-87
2022/10/28 08:12:45;;;;;;;27.27;11.27;;;;;;;12.11;100.00;101801.56;5219810;34;33909;-87
2022/10/28 08:15:53;;;;;;;25.10;10.93;;;;;;;12.15;100.00;101791.28;5219837;34;33867;-87
2022/10/28 08:18:55;;;;;;;27.42;11.23;;;;;;;12.16;100.00;101788.44;5218697;34;33543;-83
2022/10/28 08:21:58;;;;;;;23.80;11.40;;;;;;;12.19;100.00;101784.56;5219991;34;33561;-84
2022/10/28 08:25:01;;;;;;;27.85;11.15;;;;;;;12.29;100.00;101782.66;5220628;34;34810;-84
2022/10/28 08:28:04;;;;;;;24.17;10.93;;;;;;;12.38;100.00;101779.03;5221084;34;33503;-84
2022/10/28 08:31:08;;;;;;;25.20;12.00;;;;;;;12.54;100.00;101785.56;5221531;34;33630;-83
2022/10/28 08:34:11;;;;;;;22.48;10.55;;;;;;;12.53;100.00;101784.72;5220655;34;33579;-83
2022/10/28 08:37:15;;;;;;;23.48;10.57;;;;;;;12.60;100.00;101788.47;5220577;34;33880;-82
2022/10/28 08:40:27;;;;;;;21.70;9.68;;;;;;;12.65;100.00;101799.69;5220620;34;34599;-84
2022/10/28 08:43:55;;;;;;;18.95;9.95;;;;;;;12.61;100.00;101795.59;5221967;34;34801;-82
2022/10/28 08:47:05;;;;;;;;;;;;;;;12.63;100.00;101798.12;5220846;34;34185;-82
2022/10/28 08:50:14;;;;;;;22.80;9.77;;;;;;;12.51;100.00;101807.50;5220672;34;34649;-84
2022/10/28 08:53:33;;;;;;;22.30;10.35;;;;;;;12.48;100.00;101809.50;5220219;34;34207;-82
2022/10/28 08:56:45;;;;;;;22.75;9.68;;;;;;;12.53;100.00;101806.34;5220428;34;33805;-85
2022/10/28 08:59:51;;;;;;;24.42;10.07;;;;;;;12.57;100.00;101804.16;5207907;34;33830;-84
2022/10/28 09:03:15;;;;;;;22.75;10.52;;;;;;;12.54;100.00;101804.47;5221233;34;34417;-84
2022/10/28 09:06:18;;;;;;;21.67;9.60;;;;;;;12.61;100.00;101806.41;5220390;34;33884;-83
2022/10/28 09:09:22;;;;;;;22.27;10.13;;;;;;;12.64;100.00;101810.66;5220147;34;34635;-84
2022/10/28 09:12:47;;;;;;;25.45;10.52;;;;;;;12.77;100.00;101818.34;5219778;34;33942;-83
2022/10/28 09:16:12;;;;;;;22.10;10.45;;;;;;;12.83;100.00;101821.28;5220022;34;33803;-83
2022/10/28 09:19:46;;;;;;;21.87;9.70;;;;;;;12.83;100.00;101817.72;5207046;34;32603;-84
2022/10/28 09:23:02;;;;;;;19.83;10.05;;;;;;;12.83;100.00;101810.47;5207219;34;33767;-83
2022/10/28 09:26:27;;;;;;;25.98;10.25;;;;;;;12.94;100.00;101817.47;5220403;34;34376;-86
2022/10/28 09:30:21;;;;;;;20.10;9.45;;;;;;;12.91;100.00;101812.38;5219780;34;34024;-86
2022/10/28 09:33:33;;;;;;;23.75;10.00;;;;;;;12.86;100.00;101818.25;5207419;34;32213;-90
2022/10/28 09:36:41;;;;;;;20.60;10.40;;;;;;;12.99;100.00;101817.00;5220392;34;34287;-86
2022/10/28 09:39:48;;;;;;;23.42;10.63;;;;;;;12.80;100.00;101820.75;5220562;34;33501;-87
2022/10/28 09:43:00;;;;;;;19.60;9.32;;;;;;;12.90;100.00;101810.69;5220101;34;33960;-86
2022/10/28 09:46:16;;;;;;;20.80;9.98;;;;;;;12.86;100.00;101796.63;5220104;34;33891;-86
2022/10/28 09:49:27;;;;;;;18.17;9.25;;;;;;;12.96;100.00;101801.06;5219758;34;33853;-86
2022/10/28 09:52:37;;;;;;;22.02;10.38;;;;;;;12.95;100.00;101811.03;5219929;34;34228;-85
2022/10/28 09:55:40;;;;;;;19.92;9.10;;;;;;;12.93;100.00;101813.94;5208932;34;33608;-86
2022/10/28 09:58:46;;;;;;;19.45;9.73;;;;;;;13.00;100.00;101805.19;5223777;34;34065;-85
2022/10/28 10:01:48;;;;;;;18.98;9.35;;;;;;;12.96;100.00;101809.19;5223521;34;34747;-86
2022/10/28 10:04:53;;;;;;;21.30;10.25;;;;;;;12.87;100.00;101805.56;5217827;34;32615;-85
2022/10/28 10:08:05;;;;;;;22.08;10.13;;;;;;;12.92;100.00;101806.81;5236270;34;35328;-85
2022/10/28 10:11:41;;;;;;;22.65;10.23;;;;;;;12.93;100.00;101799.56;5233555;34;35236;-85
2022/10/28 10:14:50;;;;;;;21.02;9.85;;;;;;;12.99;100.00;101811.59;5219463;34;33708;-85
2022/10/28 10:17:56;;;;;;;22.87;10.65;;;;;;;12.91;100.00;101815.94;5219445;34;34220;-85
2022/10/28 10:21:00;;;;;;;23.17;11.10;;;;;;;12.88;100.00;101813.53;5214486;34;33522;-85
2022/10/28 10:24:25;;;;;;;22.62;10.35;;;;;;;12.88;100.00;101808.12;5205830;34;33121;-85
2022/10/28 10:27:29;;;;;;;21.17;9.70;;;;;;;12.93;100.00;101813.94;5219210;34;32885;-86
2022/10/28 10:30:36;;;;;;;21.25;10.32;;;;;;;12.94;100.00;101807.50;5215988;34;33899;-86
2022/10/28 10:33:39;;;;;;;21.30;10.27;;;;;;;13.08;100.00;101810.66;5202105;34;33393;-85
2022/10/28 10:36:49;;;;;;;22.95;10.90;;;;;;;13.13;100.00;101809.16;5218790;34;32909;-85
2022/10/28 10:40:24;;;;;;;19.00;10.25;;;;;;;13.20;100.00;101803.97;5219639;34;34574;-85
2022/10/28 10:43:34;;;;;;;20.45;10.18;;;;;;;13.15;100.00;101817.09;5197482;34;32391;-85
2022/10/28 10:46:37;;;;;;;20.77;10.15;;;;;;;13.21;100.00;101804.81;5214437;34;34123;-85
2022/10/28 10:49:40;;;;;;;18.48;10.52;;;;;;;13.36;100.00;101798.66;5214901;34;33678;-86
2022/10/28 10:52:55;;;;;;;21.50;10.10;;;;;;;13.42;100.00;101797.16;5216532;34;33828;-85
2022/10/28 10:56:05;;;;;;;19.50;9.88;;;;;;;13.40;100.00;101796.50;5216326;34;34480;-85
2022/10/28 10:59:25;;;;;;;20.77;10.35;;;;;;;13.51;100.00;101787.22;5204645;34;32214;-85
2022/10/28 11:02:38;;;;;;;18.58;10.02;;;;;;;13.57;100.00;101786.56;5211612;34;33860;-86
2022/10/28 11:05:48;;;;;;;16.95;9.55;;;;;;;13.53;100.00;101790.63;5197220;34;32552;-85
2022/10/28 11:09:29;;;;;;;19.80;10.43;;;;;;;13.49;100.00;101787.41;5196182;34;32521;-90
2022/10/28 11:12:35;;;;;;;18.30;10.43;;;;;;;13.39;100.00;101792.91;5219168;34;33653;-84
2022/10/28 11:15:38;;;;;;;20.60;10.95;;;;;;;13.36;100.00;101787.84;5208857;34;34563;-84
2022/10/28 11:18:46;;;;;;;18.27;10.40;;;;;;;13.41;100.00;101792.78;5219834;34;34015;-84
2022/10/28 11:22:11;;;;;;;17.62;9.40;;;;;;;13.22;100.00;101780.31;5216374;34;34536;-85
2022/10/28 11:25:32;;;;;;;17.87;9.65;;;;;;;13.38;100.00;101780.41;5218188;34;31612;-85
2022/10/28 11:28:51;;;;;;;20.88;10.93;;;;;;;13.35;100.00;101783.44;5218361;34;34380;-85
2022/10/28 11:32:00;;;;;;;20.00;10.35;;;;;;;13.45;100.00;101777.06;5212690;34;34120;-85
2022/10/28 11:35:21;;;;;;;19.87;10.82;;;;;;;13.50;100.00;101782.84;5209636;34;34515;-85
2022/10/28 11:38:30;;;;;;;17.90;10.30;;;;;;;13.49;100.00;101789.25;5204168;34;34092;-85
2022/10/28 11:41:35;;;;;;;22.55;11.40;;;;;;;13.37;100.00;101781.44;5213479;34;33943;-84
2022/10/28 11:44:53;;;;;;;23.05;11.18;;;;;;;13.22;100.00;101779.44;5203119;34;32513;-85
2022/10/28 11:48:11;;;;;;;22.42;10.68;;;;;;;13.28;100.00;101766.19;5216847;34;34281;-89
2022/10/28 11:51:42;;;;;;;18.17;9.27;;;;;;;12.99;100.00;101769.19;5192586;34;32196;-86
2022/10/28 11:55:12;;;;;;;18.30;10.20;;;;;;;13.06;100.00;101766.69;5215700;34;34486;-86
2022/10/28 11:58:38;;;;;;;19.35;10.07;;;;;;;13.14;100.00;101751.34;5228240;34;34500;-86
2022/10/28 12:02:02;;;;;;;19.08;10.00;;;;;;;13.19;100.00;101755.44;5220227;34;33592;-86
2022/10/28 12:05:15;;;;;;;20.20;10.52;;;;;;;13.22;100.00;101747.88;5219944;34;34365;-86
2022/10/28 12:08:38;;;;;;;20.75;10.48;;;;;;;13.18;100.00;101746.47;5218616;34;33823;-86
2022/10/28 12:12:05;;;;;;;19.58;10.90;;;;;;;13.22;100.00;101749.69;5194003;34;33894;-86
2022/10/28 12:15:39;;;;;;;25.70;11.23;;;;;;;13.26;100.00;101743.00;5212086;34;32855;-86
2022/10/28 12:19:25;;;;;;;21.27;10.95;;;;;;;13.19;100.00;101731.94;5221515;34;32342;-86
2022/10/28 12:22:40;;;;;;;22.25;11.93;;;;;;;13.24;100.00;101732.28;5184315;34;34202;-86
2022/10/28 12:25:48;;;;;;;19.05;10.85;;;;;;;13.20;100.00;101733.66;5188641;34;33985;-85
2022/10/28 12:28:57;;;;;;;21.87;11.10;;;;;;;13.21;100.00;101729.06;5228354;34;34321;-85
2022/10/28 12:32:07;;;;;;;21.15;11.23;;;;;;;13.09;100.00;101734.75;5210824;34;33896;-86
2022/10/28 12:35:18;;;;;;;21.80;10.18;;;;;;;13.12;100.00;101729.03;5198629;34;33758;-86
2022/10/28 12:38:32;;;;;;;18.00;10.38;;;;;;;13.18;100.00;101722.13;5207379;34;33689;-86
2022/10/28 12:42:12;;;;;;;19.95;10.45;;;;;;;13.18;100.00;101724.84;5208721;34;33245;-86
2022/10/28 12:45:19;;;;;;;19.37;11.10;;;;;;;13.14;100.00;101718.06;5210044;33;32300;-86
2022/10/28 12:48:34;;;;;;;20.17;10.57;;;;;;;13.19;100.00;101718.41;5209673;34;32237;-86
2022/10/28 12:51:39;;;;;;;22.08;10.50;;;;;;;13.24;100.00;101723.34;5218018;34;34304;-86
2022/10/28 12:55:06;;;;;;;25.05;11.18;;;;;;;13.09;100.00;101721.25;5205423;34;33498;-86
2022/10/28 12:58:17;;;;;;;19.33;10.25;;;;;;;13.09;100.00;101723.94;5211521;34;33798;-86
2022/10/28 13:01:23;;;;;;;21.85;11.02;;;;;;;13.12;100.00;101718.22;5190076;34;32714;-86
2022/10/28 13:04:27;;;;;;;23.20;10.95;;;;;;;13.02;100.00;101709.41;5205899;34;33644;-86
2022/10/28 13:08:22;;;;;;;23.80;10.93;;;;;;;13.10;100.00;101700.47;5193768;34;32106;-86
2022/10/28 13:11:25;;;;;;;24.00;11.27;;;;;;;13.11;100.00;101702.16;5184960;34;34215;-86
2022/10/28 13:14:40;;;;;;;24.52;11.43;;;;;;;13.16;100.00;101694.41;5198896;34;33037;-87
2022/10/28 13:18:02;;;;;;;23.85;12.35;;;;;;;13.27;100.00;101701.41;5206654;34;33406;-90
2022/10/28 13:21:13;;;;;;;22.95;12.23;;;;;;;13.22;100.00;101699.19;5200214;34;32996;-85
2022/10/28 13:24:32;;;;;;;22.30;11.77;;;;;;;13.10;100.00;101704.03;5205399;34;34327;-85
2022/10/28 13:27:35;;;;;;;26.83;12.20;;;;;;;12.97;100.00;101702.78;5196889;34;32440;-86
2022/10/28 13:30:56;;;;;;;23.58;11.38;;;;;;;12.85;100.00;101704.91;5208131;34;33801;-86
2022/10/28 13:33:59;;;;;;;22.15;11.73;;;;;;;12.79;100.00;101703.69;5204374;34;34100;-85
2022/10/28 13:37:05;;;;;;;23.92;11.23;;;;;;;12.68;100.00;101706.66;5196691;34;32757;-84
2022/10/28 13:40:30;;;;;;;25.55;11.63;;;;;;;12.65;100.00;101701.56;5204059;34;34600;-86
2022/10/28 13:43:48;;;;;;;27.35;12.68;;;;;;;12.69;100.00;101706.50;5206903;34;33943;-85
2022/10/28 13:47:09;;;;;;;21.87;11.57;;;;;;;12.78;100.00;101703.84;5210264;34;34578;-85
2022/10/28 13:50:21;;;;;;;23.85;11.82;;;;;;;12.76;100.00;101701.31;5203611;34;34014;-86
2022/10/28 13:53:23;;;;;;;38.15;12.40;;;;;;;12.78;100.00;101693.03;5199463;34;32425;-85
2022/10/28 13:56:26;;;;;;;23.42;11.18;;;;;;;12.72;100.00;101697.22;5219018;34;34801;-89
2022/10/28 13:59:36;;;;;;;24.37;12.27;;;;;;;12.71;100.00;101696.38;5203014;34;33838;-89
2022/10/28 14:02:45;;;;;;;24.77;12.65;;;;;;;12.75;100.00;101701.44;5214138;34;33947;-86
2022/10/28 14:05:50;;;;;;;24.17;12.15;;;;;;;12.71;100.00;101700.94;5218263;34;34282;-85
2022/10/28 14:08:55;;;;;;;26.08;12.52;;;;;;;12.67;100.00;101696.88;5206782;34;33266;-84
2022/10/28 14:12:22;;;;;;;22.42;11.23;;;;;;;12.68;100.00;101706.66;5206244;34;32524;-86
2022/10/28 14:15:32;;;;;;;23.65;10.93;;;;;;;12.68;100.00;101707.50;5219188;34;34003;-86
2022/10/28 14:18:35;;;;;;;22.73;11.60;;;;;;;12.66;100.00;101701.37;5204616;34;32227;-86
2022/10/28 14:21:57;;;;;;;25.77;11.68;;;;;;;12.67;100.00;101710.38;5219883;34;34436;-86
2022/10/28 14:25:40;;;;;;;23.70;11.80;;;;;;;12.65;100.00;101717.78;5205653;34;33593;-86
2022/10/28 14:28:42;;;;;;;23.25;12.20;;;;;;;12.53;100.00;101713.66;5217746;34;33761;-86
2022/10/28 14:31:45;;;;;;;25.52;12.32;;;;;;;12.58;100.00;101703.22;5190785;34;32192;-86
2022/10/28 14:34:48;;;;;;;21.77;11.52;;;;;;;12.54;100.00;101696.41;5189132;34;33080;-86
2022/10/28 14:37:54;;;;;;;24.58;12.40;;;;;;;12.48;100.00;101692.50;5216086;34;33520;-86
2022/10/28 14:41:17;;;;;;;25.80;11.88;;;;;;;12.52;100.00;101702.00;5205475;34;32243;-86
2022/10/28 14:44:29;;;;;;;28.20;12.43;;;;;;;12.44;100.00;101702.78;5218212;34;33843;-86
2022/10/28 14:47:37;;;;;;;26.27;13.32;;;;;;;12.44;100.00;101704.63;5191185;34;33579;-86
2022/10/28 14:50:46;;;;;;;25.02;12.45;;;;;;;12.44;100.00;101702.78;5216421;34;34058;-86
2022/10/28 14:53:53;;;;;;;28.83;13.83;;;;;;;12.33;100.00;101708.44;5219453;34;33630;-86
2022/10/28 14:56:56;;;;;;;25.60;12.27;;;;;;;12.34;100.00;101701.16;5219112;34;34077;-86
2022/10/28 15:00:07;;;;;;;26.90;12.45;;;;;;;12.35;100.00;101702.88;5205622;34;32108;-86
2022/10/28 15:03:11;;;;;;;25.20;12.82;;;;;;;12.36;100.00;101689.19;5219049;34;34428;-86
2022/10/28 15:06:38;;;;;;;24.65;11.90;;;;;;;12.44;100.00;101697.38;5220621;34;33901;-86
2022/10/28 15:09:42;;;;;;;26.42;12.52;;;;;;;12.39;100.00;101691.59;5221302;34;33487;-86
2022/10/28 15:12:49;;;;;;;27.02;12.80;;;;;;;12.29;100.00;101688.16;5211321;34;33866;-86
2022/10/28 15:15:55;;;;;;;25.50;13.10;;;;;;;12.26;100.00;101685.75;5205684;34;32462;-86
2022/10/28 15:19:05;;;;;;;26.30;13.38;;;;;;;12.24;100.00;101679.66;5218114;34;34485;-86
2022/10/28 15:22:15;;;;;;;25.12;13.00;;;;;;;12.27;100.00;101683.91;5218508;34;33885;-86
2022/10/28 15:25:20;;;;;;;26.67;13.25;;;;;;;12.24;100.00;101675.09;5206141;34;33299;-86
2022/10/28 15:28:26;;;;;;;26.60;12.25;;;;;;;12.20;100.00;101670.19;5206489;34;32249;-86
2022/10/28 15:31:28;;;;;;;28.02;12.93;;;;;;;12.17;100.00;101667.81;5226496;34;33775;-86
2022/10/28 15:34:31;;;;;;;33.63;13.93;;;;;;;12.11;100.00;101668.41;5228765;34;34308;-86
2022/10/28 15:37:35;;;;;;;27.83;12.40;;;;;;;12.04;100.00;101657.41;5228882;34;34161;-86
2022/10/28 15:40:37;;;;;;;26.92;12.88;;;;;;;12.17;100.00;101659.72;5228841;34;34138;-86
2022/10/28 15:43:40;;;;;;;28.58;15.00;;;;;;;12.15;100.00;101661.72;5228030;34;34113;-86
2022/10/28 15:46:48;;;;;;;30.15;13.90;;;;;;;12.12;100.00;101664.72;5219774;34;34084;-86
2022/10/28 15:49:59;;;;;;;29.10;13.38;;;;;;;12.12;100.00;101668.25;5217778;34;33698;-86
